createdAt,value
2023-02-11T00:05:04.775Z,65.81
2023-02-11T00:10:25.901Z,65.17
2023-02-11T00:15:46.791Z,65.83
2023-02-11T00:21:12.038Z,65.77
2023-02-11T00:26:34.025Z,65.49
2023-02-11T00:31:55.440Z,65.83
2023-02-11T00:37:20.020Z,65.75
2023-02-11T00:42:40.854Z,65.84
2023-02-11T00:48:01.881Z,66.53
2023-02-11T00:53:23.018Z,66.29
2023-02-11T00:58:44.036Z,66.62
2023-02-11T01:04:04.879Z,66.60
2023-02-11T01:09:26.239Z,66.25
2023-02-11T01:14:47.323Z,66.74
2023-02-11T01:20:09.434Z,66.43
2023-02-11T01:25:30.491Z,66.32
2023-02-11T01:30:52.987Z,66.57
2023-02-11T01:36:13.822Z,66.20
2023-02-11T01:41:34.902Z,66.42
2023-02-11T01:46:55.907Z,66.43
2023-02-11T01:52:26.697Z,66.74
2023-02-11T01:57:49.435Z,66.62
2023-02-11T02:03:13.222Z,66.57
2023-02-11T02:09:03.239Z,66.51
2023-02-11T02:14:24.192Z,66.09
2023-02-11T02:19:58.618Z,66.53
2023-02-11T02:25:36.710Z,66.69
2023-02-11T02:31:22.314Z,66.23
2023-02-11T02:36:47.794Z,66.35
2023-02-11T02:42:08.972Z,66.46
2023-02-11T02:47:29.818Z,66.44
2023-02-11T02:52:58.936Z,66.29
2023-02-11T02:58:53.956Z,65.70
2023-02-11T03:04:21.324Z,65.59
2023-02-11T03:09:50.754Z,65.51
2023-02-11T03:15:11.981Z,65.78
2023-02-11T03:20:33.571Z,66.11
2023-02-11T03:26:03.473Z,65.64
2023-02-11T03:31:31.887Z,65.84
2023-02-11T03:36:56.050Z,65.24
2023-02-11T03:42:17.192Z,65.58
2023-02-11T03:47:39.752Z,65.30
2023-02-11T03:53:01.640Z,65.28
2023-02-11T03:58:22.477Z,65.09
2023-02-11T04:03:43.261Z,65.15
2023-02-11T04:09:04.146Z,65.28
2023-02-11T04:14:24.854Z,65.77
2023-02-11T04:19:45.848Z,65.34
2023-02-11T04:25:07.517Z,65.20
2023-02-11T04:30:28.768Z,64.79
2023-02-11T04:35:50.316Z,65.05
2023-02-11T04:41:11.801Z,64.77
2023-02-11T04:46:32.816Z,64.83
2023-02-11T04:51:53.619Z,64.98
2023-02-11T04:57:14.584Z,65.24
2023-02-11T05:02:35.711Z,65.04
2023-02-11T05:07:57.324Z,64.83
2023-02-11T05:13:17.909Z,65.07
2023-02-11T05:18:39.391Z,65.10
2023-02-11T05:24:00.229Z,64.94
2023-02-11T05:29:20.971Z,65.37
2023-02-11T05:34:41.862Z,65.09
2023-02-11T05:40:02.700Z,65.39
2023-02-11T05:45:23.511Z,65.68
2023-02-11T05:50:44.282Z,65.35
2023-02-11T05:56:05.731Z,65.05
2023-02-11T06:01:27.386Z,65.33
2023-02-11T06:06:48.467Z,64.97
2023-02-11T06:12:09.315Z,64.78
2023-02-11T06:17:33.830Z,64.98
2023-02-11T06:22:55.357Z,64.79
2023-02-11T06:28:16.217Z,64.83
2023-02-11T06:33:36.977Z,64.80
2023-02-11T06:38:57.767Z,64.96
2023-02-11T06:44:18.789Z,64.56
2023-02-11T06:49:40.391Z,64.82
2023-02-11T06:55:01.254Z,64.71
2023-02-11T07:00:22.027Z,63.90
2023-02-11T07:05:43.185Z,64.13
2023-02-11T07:11:18.077Z,64.37
2023-02-11T07:16:39.110Z,63.65
2023-02-11T07:22:00.028Z,63.71
2023-02-11T07:27:20.931Z,63.80
2023-02-11T07:32:41.673Z,63.36
2023-02-11T07:38:02.427Z,64.04
2023-02-11T07:43:23.281Z,63.24
2023-02-11T07:48:44.079Z,62.95
2023-02-11T07:54:05.185Z,63.03
2023-02-11T07:59:29.328Z,62.62
2023-02-11T08:04:50.838Z,62.78
2023-02-11T08:10:11.667Z,62.17
2023-02-11T08:15:32.425Z,61.50
2023-02-11T08:20:53.365Z,61.74
2023-02-11T08:26:34.796Z,60.37
2023-02-11T08:31:55.743Z,60.85
2023-02-11T08:37:17.786Z,59.97
2023-02-11T08:42:38.887Z,59.26
2023-02-11T08:48:00.074Z,56.70
2023-02-11T08:53:21.466Z,53.70
2023-02-11T08:58:42.983Z,54.38
2023-02-11T09:04:04.302Z,53.92
2023-02-11T09:09:25.661Z,52.50
2023-02-11T09:14:46.917Z,51.76
2023-02-11T09:20:10.716Z,52.90
2023-02-11T09:25:32.104Z,52.44
2023-02-11T09:30:53.791Z,51.55
2023-02-11T09:36:16.761Z,50.20
2023-02-11T09:42:04.157Z,49.40
2023-02-11T09:47:26.156Z,48.13
2023-02-11T09:53:12.089Z,48.53
2023-02-11T09:58:37.059Z,48.68
2023-02-11T10:04:16.758Z,47.87
2023-02-11T10:09:55.959Z,47.60
2023-02-11T10:15:39.090Z,49.12
2023-02-11T10:21:40.752Z,50.41
2023-02-11T10:27:06.600Z,50.86
2023-02-11T10:32:39.495Z,50.19
2023-02-11T10:38:01.061Z,50.49
2023-02-11T10:43:26.057Z,51.35
2023-02-11T10:48:53.016Z,52.20
2023-02-11T10:54:21.233Z,51.58
2023-02-11T10:59:43.430Z,49.60
2023-02-11T11:05:28.454Z,50.27
2023-02-11T11:11:03.840Z,51.45
2023-02-11T11:16:32.278Z,52.29
2023-02-11T11:21:53.893Z,51.23
2023-02-11T11:27:24.630Z,51.58
2023-02-11T11:32:45.463Z,51.58
2023-02-11T11:38:06.684Z,52.13
2023-02-11T11:43:27.940Z,53.44
2023-02-11T11:48:48.739Z,53.99
2023-02-11T11:54:12.736Z,54.53
2023-02-11T11:59:33.531Z,54.32
2023-02-11T12:05:29.815Z,53.33
2023-02-11T12:10:50.832Z,52.98
2023-02-11T12:16:36.176Z,52.69
2023-02-11T12:22:03.007Z,52.59
2023-02-11T12:27:32.542Z,52.71
2023-02-11T12:33:15.959Z,53.91
2023-02-11T12:38:51.797Z,54.99
2023-02-11T12:44:43.064Z,55.09
2023-02-11T12:50:25.014Z,56.32
2023-02-11T12:55:47.152Z,56.59
2023-02-11T13:01:32.146Z,57.30
2023-02-11T13:06:59.636Z,57.02
2023-02-11T13:12:39.670Z,57.23
2023-02-11T13:18:30.010Z,56.10
2023-02-11T13:24:13.585Z,55.54
2023-02-11T13:29:52.369Z,54.68
2023-02-11T13:35:33.014Z,54.63
2023-02-11T13:41:04.021Z,54.77
2023-02-11T13:46:24.931Z,55.66
2023-02-11T13:51:46.317Z,55.95
2023-02-11T13:57:21.992Z,56.43
2023-02-11T14:03:01.698Z,56.37
2023-02-11T14:08:44.413Z,57.19
2023-02-11T14:14:05.386Z,56.86
2023-02-11T14:19:33.116Z,57.21
2023-02-11T14:25:01.326Z,58.01
2023-02-11T14:30:57.139Z,57.99
2023-02-11T14:36:43.874Z,58.30
2023-02-11T14:42:04.661Z,58.48
2023-02-11T14:47:35.730Z,58.87
2023-02-11T14:52:56.549Z,58.61
2023-02-11T14:58:22.375Z,59.13
2023-02-11T15:03:43.539Z,59.79
2023-02-11T15:09:13.483Z,60.27
2023-02-11T15:14:34.848Z,61.34
2023-02-11T15:19:57.243Z,60.96
2023-02-11T15:25:19.896Z,61.73
2023-02-11T15:30:40.881Z,61.23
2023-02-11T15:36:05.106Z,62.18
2023-02-11T15:41:35.600Z,63.11
2023-02-11T15:46:56.763Z,62.95
2023-02-11T15:52:24.013Z,63.13
2023-02-11T15:57:54.082Z,63.45
2023-02-11T16:03:25.252Z,63.47
2023-02-11T16:09:00.722Z,63.84
2023-02-11T16:14:27.882Z,64.02
2023-02-11T16:19:49.580Z,63.82
2023-02-11T16:25:19.051Z,64.10
2023-02-11T16:30:40.996Z,64.08
2023-02-11T16:36:02.987Z,65.13
2023-02-11T16:41:23.982Z,65.04
2023-02-11T16:46:44.989Z,65.08
2023-02-11T16:52:08.102Z,65.09
2023-02-11T16:57:30.484Z,65.63
2023-02-11T17:02:51.534Z,65.75
2023-02-11T17:08:12.609Z,65.77
2023-02-11T17:13:33.827Z,65.57
2023-02-11T17:18:54.917Z,65.96
2023-02-11T17:24:16.098Z,65.96
2023-02-11T17:29:36.968Z,66.28
2023-02-11T17:34:57.912Z,66.25
2023-02-11T17:40:18.693Z,66.72
2023-02-11T17:45:42.619Z,66.98
2023-02-11T17:51:03.457Z,66.77
2023-02-11T17:56:24.413Z,67.33
2023-02-11T18:01:45.412Z,67.30
2023-02-11T18:07:06.886Z,67.48
2023-02-11T18:12:27.573Z,67.37
2023-02-11T18:17:48.285Z,67.85
2023-02-11T18:23:12.127Z,67.91
2023-02-11T18:28:33.357Z,67.88
2023-02-11T18:33:54.285Z,68.18
2023-02-11T18:39:14.894Z,68.00
2023-02-11T18:44:35.772Z,68.62
2023-02-11T18:49:56.734Z,68.41
2023-02-11T18:55:17.539Z,68.54
2023-02-11T19:00:39.901Z,68.43
2023-02-11T19:06:00.905Z,68.59
2023-02-11T19:11:42.980Z,68.64
2023-02-11T19:17:05.444Z,69.23
2023-02-11T19:22:26.697Z,69.70
2023-02-11T19:27:47.655Z,69.43
2023-02-11T19:33:10.263Z,69.79
2023-02-11T19:38:31.487Z,70.25
2023-02-11T19:43:56.817Z,70.05
2023-02-11T19:49:23.112Z,70.15
2023-02-11T19:54:43.921Z,70.85
2023-02-11T20:00:05.650Z,71.88
2023-02-11T20:05:32.924Z,71.87
2023-02-11T20:10:54.133Z,72.25
2023-02-11T20:16:19.226Z,72.64
2023-02-11T20:21:40.492Z,72.91
2023-02-11T20:27:01.550Z,72.31
2023-02-11T20:32:22.778Z,72.45
2023-02-11T20:37:44.306Z,71.96
2023-02-11T20:43:05.589Z,72.31
2023-02-11T20:48:26.325Z,72.15
2023-02-11T20:53:51.142Z,72.27
2023-02-11T20:59:12.069Z,72.33
2023-02-11T21:04:33.105Z,71.94
2023-02-11T21:09:54.288Z,72.62
2023-02-11T21:15:15.500Z,72.60
2023-02-11T21:20:36.717Z,72.71
2023-02-11T21:25:57.598Z,72.68
2023-02-11T21:31:24.984Z,72.70
2023-02-11T21:36:46.434Z,72.76
2023-02-11T21:42:07.668Z,73.14
2023-02-11T21:47:28.264Z,73.69
2023-02-11T21:52:49.349Z,73.37
2023-02-11T21:58:10.911Z,73.44
2023-02-11T22:03:31.737Z,73.69
2023-02-11T22:08:52.976Z,74.37
2023-02-11T22:14:13.657Z,74.15
2023-02-11T22:19:34.481Z,74.18
2023-02-11T22:24:55.761Z,74.42
2023-02-11T22:30:16.700Z,74.59
2023-02-11T22:35:38.187Z,74.83
2023-02-11T22:40:59.805Z,74.67
2023-02-11T22:46:20.775Z,74.63
2023-02-11T22:51:42.066Z,74.64
2023-02-11T22:57:02.868Z,74.33
2023-02-11T23:02:23.676Z,74.99
2023-02-11T23:07:44.476Z,74.63
2023-02-11T23:13:05.926Z,74.71
2023-02-11T23:18:26.627Z,74.89
2023-02-11T23:23:47.527Z,74.90
2023-02-11T23:29:08.681Z,74.64
2023-02-11T23:34:29.798Z,74.99
2023-02-11T23:39:50.766Z,74.90
2023-02-11T23:45:11.789Z,74.47
2023-02-11T23:50:32.887Z,75.05
2023-02-11T23:55:53.959Z,74.55
